Terminal Aerodrome Forecast
Issued by NWS

Home | Current Version | Previous Version | Graphics & Text | Print | Product List | Glossary On
Versions: 1 2 3 4 5 6 7 8 9 10 11 12 13 14 15 16
000
FTUS43 KGRB 290328 AAA
TAFMTW
TAF AMD
KMTW 290328Z 2903/2924 17005KT 6SM -RA BR SCT020 OVC060
     FM290700 16005KT 3SM -RA BR BKN009 OVC018
     FM291500 14005KT 5SM BR SCT009 OVC020 PROB30 2915/2918 2SM
      -SHRA BR BKN009
     FM292100 15005KT P6SM FEW025 BKN050=

USA.gov is the U.S. government's official web portal to all federal, state and local government web resources and services.